Time;durP1;ratioP1;P1;durP2;ratioP2;P2;SDS_P1;SDS_P2;PMS_P1;PMS_P2;Temp;Humidity;BMP_temperature;BMP_pressure;BME280_temperature;BME280_humidity;BME280_pressure;Samples;Min_cycle;Max_cycle;Signal;HPM_P1;HPM_P2
2022/05/13 00:02:27;;;;;;;2.80;0.80;;;;;;;;;;5159077;27;20979;-15
2022/05/13 00:04:54;;;;;;;2.10;0.80;;;;;;;;;;5153860;27;20835;-15
2022/05/13 00:07:21;;;;;;;2.13;0.82;;;;;;;;;;5154146;27;20227;-15
2022/05/13 00:09:59;;;;;;;2.80;0.60;;;;;;;;;;5154087;27;20241;-15
2022/05/13 00:12:26;;;;;;;3.08;0.70;;;;;;;;;;5153985;27;21085;-15
2022/05/13 00:14:54;;;;;;;2.10;0.65;;;;;;;;;;5154381;27;20218;-15
2022/05/13 00:17:21;;;;;;;2.20;0.70;;;;;;;;;;5153939;27;20223;-15
2022/05/13 00:19:50;;;;;;;2.75;0.70;;;;;;;;;;5158494;27;20240;-16
2022/05/13 00:22:18;;;;;;;1.60;0.60;;;;;;;;;;5174971;27;20241;-15
2022/05/13 00:24:52;;;;;;;5.80;0.82;;;;;;;;;;5174704;27;20236;-15
2022/05/13 00:27:20;;;;;;;3.00;0.70;;;;;;;;;;5174075;27;20226;-16
2022/05/13 00:29:47;;;;;;;2.97;1.15;;;;;;;;;;5174370;27;20230;-14
2022/05/13 00:32:14;;;;;;;1.58;0.77;;;;;;;;;;5174636;27;21044;-15
2022/05/13 00:34:43;;;;;;;2.50;0.57;;;;;;;;;;5174654;27;20233;-15
2022/05/13 00:37:11;;;;;;;3.50;0.70;;;;;;;;;;5173818;27;20287;-15
2022/05/13 00:39:39;;;;;;;2.55;0.70;;;;;;;;;;5153612;27;20617;-16
2022/05/13 00:42:07;;;;;;;1.75;0.60;;;;;;;;;;5153559;27;20218;-15
2022/05/13 00:44:34;;;;;;;1.75;0.70;;;;;;;;;;5154010;27;20731;-15
2022/05/13 00:47:02;;;;;;;2.90;0.60;;;;;;;;;;5170424;27;20237;-15
2022/05/13 00:49:31;;;;;;;1.83;0.52;;;;;;;;;;5163226;27;20657;-15
2022/05/13 00:51:58;;;;;;;3.80;0.80;;;;;;;;;;5174335;27;20233;-14
2022/05/13 00:54:27;;;;;;;4.10;0.88;;;;;;;;;;5174461;27;20814;-15
2022/05/13 00:56:54;;;;;;;1.48;0.60;;;;;;;;;;5174006;27;20963;-15
2022/05/13 00:59:22;;;;;;;1.80;0.60;;;;;;;;;;5173110;27;20860;-16
2022/05/13 01:01:50;;;;;;;2.03;0.75;;;;;;;;;;5174365;27;20222;-15
2022/05/13 01:04:18;;;;;;;2.25;0.57;;;;;;;;;;5172888;27;20692;-15
2022/05/13 01:06:45;;;;;;;6.90;1.30;;;;;;;;;;5166108;27;21067;-15
2022/05/13 01:09:13;;;;;;;2.15;0.77;;;;;;;;;;5153057;27;20222;-14
2022/05/13 01:11:42;;;;;;;2.67;0.70;;;;;;;;;;5154640;27;20241;-14
2022/05/13 01:14:10;;;;;;;2.17;0.70;;;;;;;;;;5157200;27;20241;-15
2022/05/13 01:19:19;;;;;;;2.88;0.70;;;;;;;;;;5163450;27;20233;-15
2022/05/13 01:21:48;;;;;;;1.70;0.50;;;;;;;;;;5162784;27;20230;-15
2022/05/13 01:24:16;;;;;;;3.30;0.80;;;;;;;;;;5162219;27;20223;-16
2022/05/13 01:26:43;;;;;;;1.42;0.50;;;;;;;;;;5166714;27;20226;-15
2022/05/13 01:29:10;;;;;;;2.17;1.00;;;;;;;;;;5163059;27;20237;-15
2022/05/13 01:31:39;;;;;;;2.97;0.80;;;;;;;;;;5160569;27;20658;-14
2022/05/13 01:34:07;;;;;;;2.65;0.60;;;;;;;;;;5163287;27;20276;-15
2022/05/13 01:36:35;;;;;;;1.80;0.65;;;;;;;;;;5160379;27;20221;-14
2022/05/13 01:39:03;;;;;;;3.70;0.60;;;;;;;;;;5161503;27;20613;-15
2022/05/13 01:41:31;;;;;;;1.77;0.60;;;;;;;;;;5161413;27;20760;-15
2022/05/13 01:43:58;;;;;;;1.38;0.57;;;;;;;;;;5164496;27;20226;-15
2022/05/13 01:46:26;;;;;;;3.03;0.80;;;;;;;;;;5157335;27;20233;-15
2022/05/13 01:48:53;;;;;;;1.92;0.70;;;;;;;;;;5165438;27;20320;-14
2022/05/13 01:51:21;;;;;;;2.25;0.93;;;;;;;;;;5163428;27;20969;-15
2022/05/13 01:53:48;;;;;;;2.85;0.70;;;;;;;;;;5162747;27;20226;-16
2022/05/13 01:56:17;;;;;;;1.75;0.65;;;;;;;;;;5162686;27;20226;-13
2022/05/13 01:58:45;;;;;;;2.35;0.77;;;;;;;;;;5163276;27;20340;-15
2022/05/13 02:01:12;;;;;;;2.22;0.80;;;;;;;;;;5168326;27;20709;-16
2022/05/13 02:03:46;;;;;;;1.92;0.90;;;;;;;;;;5161347;27;20223;-14
2022/05/13 02:06:15;;;;;;;2.22;0.70;;;;;;;;;;5163047;27;20288;-16
2022/05/13 02:08:42;;;;;;;2.40;0.82;;;;;;;;;;5162320;27;20231;-15
2022/05/13 02:11:10;;;;;;;1.67;0.55;;;;;;;;;;5164962;27;20707;-14
2022/05/13 02:13:39;;;;;;;1.73;0.60;;;;;;;;;;5164890;27;20227;-16
2022/05/13 02:16:06;;;;;;;1.73;0.52;;;;;;;;;;5168014;27;20230;-14
2022/05/13 02:18:34;;;;;;;2.78;0.70;;;;;;;;;;5168203;27;20241;-14
2022/05/13 02:21:01;;;;;;;2.30;0.70;;;;;;;;;;5173227;22;20229;-18
2022/05/13 02:23:28;;;;;;;1.83;0.60;;;;;;;;;;5089616;28;20229;-18
2022/05/13 02:25:58;;;;;;;1.58;0.82;;;;;;;;;;5085573;28;20228;-18
2022/05/13 02:28:25;;;;;;;2.80;0.80;;;;;;;;;;5082302;28;20232;-20
2022/05/13 02:30:54;;;;;;;2.28;0.70;;;;;;;;;;5087078;28;20229;-20
2022/05/13 02:33:21;;;;;;;1.95;0.80;;;;;;;;;;5083517;28;20233;-19
2022/05/13 02:35:48;;;;;;;1.52;0.60;;;;;;;;;;5083061;28;20248;-19
2022/05/13 02:38:16;;;;;;;2.03;0.90;;;;;;;;;;5083260;28;20232;-19
2022/05/13 02:43:28;;;;;;;1.88;0.60;;;;;;;;;;5084984;28;20225;-20
2022/05/13 02:45:57;;;;;;;3.33;1.00;;;;;;;;;;5088504;28;20331;-20
2022/05/13 02:48:24;;;;;;;2.85;0.93;;;;;;;;;;5081684;28;20280;-19
2022/05/13 02:50:51;;;;;;;3.80;1.20;;;;;;;;;;5083045;28;20237;-19
2022/05/13 02:53:19;;;;;;;3.33;0.73;;;;;;;;;;5083391;28;20264;-20
2022/05/13 02:55:46;;;;;;;3.60;0.80;;;;;;;;;;5083324;28;20243;-19
2022/05/13 02:58:13;;;;;;;2.03;0.70;;;;;;;;;;5081102;28;20256;-18
2022/05/13 03:00:40;;;;;;;2.75;0.90;;;;;;;;;;5083581;28;20834;-19
2022/05/13 03:03:09;;;;;;;3.38;1.08;;;;;;;;;;5080636;28;20226;-19
2022/05/13 03:05:38;;;;;;;2.95;0.88;;;;;;;;;;5085025;28;20294;-19
2022/05/13 03:08:07;;;;;;;2.88;1.10;;;;;;;;;;5080866;28;20631;-19
2022/05/13 03:10:36;;;;;;;3.55;0.80;;;;;;;;;;5084348;28;20233;-19
2022/05/13 03:13:03;;;;;;;2.55;0.85;;;;;;;;;;5080681;28;20751;-19
2022/05/13 03:15:30;;;;;;;3.30;0.80;;;;;;;;;;5088179;28;20228;-18
2022/05/13 03:17:58;;;;;;;3.08;0.80;;;;;;;;;;5080071;28;21130;-19
2022/05/13 03:20:26;;;;;;;3.10;0.90;;;;;;;;;;5081273;28;20234;-19
2022/05/13 03:22:54;;;;;;;3.10;0.95;;;;;;;;;;5082580;28;20242;-19
2022/05/13 03:25:21;;;;;;;7.10;1.23;;;;;;;;;;5079715;28;20241;-19
2022/05/13 03:27:49;;;;;;;2.45;0.80;;;;;;;;;;5076994;28;20234;-20
2022/05/13 03:30:17;;;;;;;4.13;1.05;;;;;;;;;;5081917;28;20228;-19
2022/05/13 03:32:44;;;;;;;4.63;1.23;;;;;;;;;;5076144;28;20684;-20
2022/05/13 03:35:12;;;;;;;3.00;1.00;;;;;;;;;;5081496;28;20229;-19
2022/05/13 03:37:41;;;;;;;6.90;1.30;;;;;;;;;;5081837;28;21027;-19
2022/05/13 03:40:09;;;;;;;3.10;1.00;;;;;;;;;;5084002;28;20221;-20
2022/05/13 03:42:36;;;;;;;4.43;1.30;;;;;;;;;;5083283;28;20727;-19
2022/05/13 03:45:04;;;;;;;2.05;0.80;;;;;;;;;;5079984;28;20267;-19
2022/05/13 03:47:32;;;;;;;3.35;1.38;;;;;;;;;;5076052;28;20240;-19
2022/05/13 03:49:59;;;;;;;3.95;1.75;;;;;;;;;;5083538;28;20217;-19
2022/05/13 03:52:26;;;;;;;3.67;1.35;;;;;;;;;;5083487;28;20236;-19
2022/05/13 03:54:55;;;;;;;2.83;1.10;;;;;;;;;;5080842;28;20259;-19
2022/05/13 03:57:22;;;;;;;3.15;1.00;;;;;;;;;;5077674;28;20221;-19
2022/05/13 03:59:49;;;;;;;4.78;1.80;;;;;;;;;;5080081;28;20233;-19
2022/05/13 04:02:17;;;;;;;3.17;0.98;;;;;;;;;;5086062;28;20230;-18
2022/05/13 04:10:15;;;;;;;2.55;1.17;;;;;;;;;;5076968;28;20964;-19
2022/05/13 04:18:12;;;;;;;2.47;1.38;;;;;;;;;;5078349;28;20903;-19
2022/05/13 04:20:39;;;;;;;3.03;1.30;;;;;;;;;;5078156;28;20233;-19
2022/05/13 04:23:07;;;;;;;3.30;1.20;;;;;;;;;;5082567;28;20244;-19
2022/05/13 04:25:35;;;;;;;4.25;1.35;;;;;;;;;;5079523;28;20238;-19
2022/05/13 04:28:03;;;;;;;9.93;1.60;;;;;;;;;;5079073;28;20343;-19
2022/05/13 04:30:30;;;;;;;6.32;1.58;;;;;;;;;;5079375;28;20684;-19
2022/05/13 04:32:57;;;;;;;5.38;1.70;;;;;;;;;;5079331;28;20245;-18
2022/05/13 04:35:25;;;;;;;5.50;1.52;;;;;;;;;;5083669;28;20217;-19
2022/05/13 04:37:52;;;;;;;5.65;1.60;;;;;;;;;;5081590;28;20237;-19
2022/05/13 04:40:19;;;;;;;5.57;1.40;;;;;;;;;;5080824;28;20242;-18
2022/05/13 04:42:50;;;;;;;5.07;1.55;;;;;;;;;;5080236;28;20743;-19
2022/05/13 04:45:23;;;;;;;3.38;1.52;;;;;;;;;;5085542;28;20228;-20
2022/05/13 04:50:36;;;;;;;6.47;1.60;;;;;;;;;;5075837;28;20230;-19
2022/05/13 04:53:04;;;;;;;5.63;1.85;;;;;;;;;;5082950;28;21142;-19
2022/05/13 04:55:32;;;;;;;5.65;1.95;;;;;;;;;;5078761;28;20864;-19
2022/05/13 04:58:00;;;;;;;4.65;1.58;;;;;;;;;;5082117;28;20232;-19
2022/05/13 05:00:28;;;;;;;4.05;1.55;;;;;;;;;;5079261;28;20252;-19
2022/05/13 05:02:55;;;;;;;8.23;1.75;;;;;;;;;;5081775;28;20239;-19
2022/05/13 05:05:22;;;;;;;5.82;1.88;;;;;;;;;;5079377;28;20229;-19
2022/05/13 05:07:50;;;;;;;5.15;1.70;;;;;;;;;;5081276;28;21180;-19
2022/05/13 05:10:18;;;;;;;8.65;1.67;;;;;;;;;;5080655;28;20228;-20
2022/05/13 05:12:47;;;;;;;5.32;1.85;;;;;;;;;;5080553;28;20248;-18
2022/05/13 05:15:16;;;;;;;7.13;1.88;;;;;;;;;;5080325;28;20703;-20
2022/05/13 05:17:43;;;;;;;4.57;1.80;;;;;;;;;;5079992;28;20226;-19
2022/05/13 05:20:11;;;;;;;6.60;1.70;;;;;;;;;;5081470;28;20228;-19
2022/05/13 05:22:39;;;;;;;5.63;1.83;;;;;;;;;;5079001;28;20700;-19
2022/05/13 05:25:06;;;;;;;7.95;2.20;;;;;;;;;;5082016;28;20220;-19
2022/05/13 05:27:35;;;;;;;7.05;2.65;;;;;;;;;;5077232;28;21071;-19
2022/05/13 05:30:04;;;;;;;5.90;1.92;;;;;;;;;;5073800;28;20236;-18
2022/05/13 05:32:32;;;;;;;6.28;1.80;;;;;;;;;;5074684;28;20241;-19
2022/05/13 05:35:00;;;;;;;7.03;2.20;;;;;;;;;;5074571;28;20230;-17
2022/05/13 05:37:27;;;;;;;5.55;2.10;;;;;;;;;;5078820;28;20685;-20
2022/05/13 05:39:54;;;;;;;7.75;2.08;;;;;;;;;;5075477;28;20237;-19
2022/05/13 05:42:22;;;;;;;7.43;2.13;;;;;;;;;;5073552;28;20237;-19
2022/05/13 05:44:49;;;;;;;6.85;2.00;;;;;;;;;;5076994;28;20606;-20
2022/05/13 05:47:19;;;;;;;8.00;2.80;;;;;;;;;;5079614;28;20233;-20
2022/05/13 05:49:47;;;;;;;5.50;2.08;;;;;;;;;;5078018;28;20232;-18
2022/05/13 05:52:15;;;;;;;7.20;2.28;;;;;;;;;;5082625;28;20991;-17
2022/05/13 05:57:32;;;;;;;10.52;2.63;;;;;;;;;;5068808;28;20237;-20
2022/05/13 06:00:00;;;;;;;7.22;2.33;;;;;;;;;;5065420;28;20329;-18
2022/05/13 06:02:28;;;;;;;7.75;2.75;;;;;;;;;;5071718;28;20229;-17
2022/05/13 06:04:56;;;;;;;11.73;3.55;;;;;;;;;;5075967;28;20229;-17
2022/05/13 06:07:24;;;;;;;9.15;3.00;;;;;;;;;;5075913;28;20245;-19
2022/05/13 06:09:51;;;;;;;7.22;2.45;;;;;;;;;;5073669;28;20230;-20
2022/05/13 06:12:18;;;;;;;8.93;2.63;;;;;;;;;;5062401;28;20234;-19
2022/05/13 06:14:46;;;;;;;11.52;2.70;;;;;;;;;;5069572;28;20244;-19
2022/05/13 06:17:13;;;;;;;8.35;3.05;;;;;;;;;;5070270;28;20724;-19
2022/05/13 06:19:40;;;;;;;8.63;2.63;;;;;;;;;;5070635;28;20234;-19
2022/05/13 06:22:09;;;;;;;7.25;2.38;;;;;;;;;;5067145;28;20249;-19
2022/05/13 06:24:37;;;;;;;7.18;2.75;;;;;;;;;;5083184;28;20270;-19
2022/05/13 06:27:05;;;;;;;10.38;2.85;;;;;;;;;;5084771;28;20229;-18
2022/05/13 06:29:35;;;;;;;9.80;2.53;;;;;;;;;;5082949;28;20229;-19
2022/05/13 06:32:02;;;;;;;9.70;3.00;;;;;;;;;;5069940;28;20225;-19
2022/05/13 06:34:29;;;;;;;7.78;2.45;;;;;;;;;;5082183;28;20261;-19
2022/05/13 06:36:57;;;;;;;8.68;2.78;;;;;;;;;;5085223;28;20219;-19
2022/05/13 06:39:25;;;;;;;6.97;2.80;;;;;;;;;;5082127;28;20711;-19
2022/05/13 06:41:52;;;;;;;9.30;2.90;;;;;;;;;;5083430;28;20248;-19
2022/05/13 06:44:20;;;;;;;11.00;3.13;;;;;;;;;;5083603;28;20662;-18
2022/05/13 06:46:47;;;;;;;6.85;2.65;;;;;;;;;;5081938;28;20236;-18
2022/05/13 06:49:15;;;;;;;8.27;3.10;;;;;;;;;;5084795;28;20718;-18
2022/05/13 06:51:42;;;;;;;9.73;2.97;;;;;;;;;;5080759;28;20669;-19
2022/05/13 06:54:09;;;;;;;8.63;2.33;;;;;;;;;;5083178;28;20252;-19
2022/05/13 06:56:39;;;;;;;7.80;2.90;;;;;;;;;;5083751;28;20235;-19
2022/05/13 06:59:06;;;;;;;10.30;2.70;;;;;;;;;;5076987;28;20261;-19
2022/05/13 07:01:39;;;;;;;9.90;3.30;;;;;;;;;;5080841;28;20684;-19
2022/05/13 07:04:06;;;;;;;10.43;2.80;;;;;;;;;;5081116;28;20231;-20
2022/05/13 07:06:33;;;;;;;9.07;2.70;;;;;;;;;;5079857;28;20225;-19
2022/05/13 07:09:01;;;;;;;5.63;2.33;;;;;;;;;;5076865;28;20237;-19
2022/05/13 07:11:28;;;;;;;12.13;3.00;;;;;;;;;;5084019;28;20236;-19
2022/05/13 07:13:57;;;;;;;17.10;3.25;;;;;;;;;;5081051;28;20927;-20
2022/05/13 07:16:24;;;;;;;14.70;3.80;;;;;;;;;;5079675;28;20233;-19
2022/05/13 07:18:51;;;;;;;10.05;3.25;;;;;;;;;;5079324;28;20235;-19
2022/05/13 07:21:19;;;;;;;13.38;3.40;;;;;;;;;;5079311;28;20245;-19
2022/05/13 07:23:46;;;;;;;11.02;3.13;;;;;;;;;;5082330;28;20706;-18
2022/05/13 07:26:13;;;;;;;8.15;3.10;;;;;;;;;;5080751;28;20229;-19
2022/05/13 07:28:41;;;;;;;8.50;3.20;;;;;;;;;;5078975;28;20986;-18
2022/05/13 07:31:09;;;;;;;10.68;3.47;;;;;;;;;;5083563;28;20236;-19
2022/05/13 07:33:37;;;;;;;11.10;3.45;;;;;;;;;;5079834;28;20502;-19
2022/05/13 07:36:04;;;;;;;11.15;3.40;;;;;;;;;;5083267;28;20228;-19
2022/05/13 07:38:32;;;;;;;12.85;4.22;;;;;;;;;;5074745;28;20229;-19
2022/05/13 07:41:16;;;;;;;10.27;3.35;;;;;;;;;;5083152;28;20224;-19
2022/05/13 07:43:44;;;;;;;11.15;3.45;;;;;;;;;;5078501;28;20222;-18
2022/05/13 07:46:12;;;;;;;11.95;3.67;;;;;;;;;;5082763;28;21079;-19
2022/05/13 07:48:40;;;;;;;10.18;3.47;;;;;;;;;;5082728;28;20685;-19
2022/05/13 07:51:08;;;;;;;10.10;3.13;;;;;;;;;;5072352;28;20264;-19
2022/05/13 07:53:36;;;;;;;12.88;3.40;;;;;;;;;;5079980;28;20566;-19
2022/05/13 07:56:03;;;;;;;8.80;2.83;;;;;;;;;;5083761;28;20225;-19
2022/05/13 07:58:31;;;;;;;9.30;3.03;;;;;;;;;;5075809;28;20924;-20
2022/05/13 08:00:59;;;;;;;9.50;2.80;;;;;;;;;;5078929;28;20394;-19
2022/05/13 08:03:30;;;;;;;10.85;3.50;;;;;;;;;;5080479;28;20238;-18
2022/05/13 08:06:03;;;;;;;8.13;3.13;;;;;;;;;;5083218;28;20284;-19
2022/05/13 08:08:31;;;;;;;6.03;2.55;;;;;;;;;;5068118;28;20330;-19
2022/05/13 08:10:59;;;;;;;6.63;2.80;;;;;;;;;;5069873;28;20328;-20
2022/05/13 08:13:28;;;;;;;9.63;2.80;;;;;;;;;;5077653;28;20249;-20
2022/05/13 08:15:55;;;;;;;10.48;3.22;;;;;;;;;;5078633;28;20650;-18
2022/05/13 08:18:23;;;;;;;8.73;2.63;;;;;;;;;;5077258;28;20229;-19
2022/05/13 08:20:51;;;;;;;8.45;2.35;;;;;;;;;;5078189;28;20240;-19
2022/05/13 08:23:19;;;;;;;16.48;3.58;;;;;;;;;;5073918;28;20263;-19
2022/05/13 08:25:46;;;;;;;8.23;2.40;;;;;;;;;;5080015;28;20225;-18
2022/05/13 08:28:14;;;;;;;7.80;3.15;;;;;;;;;;5072951;28;20228;-18
2022/05/13 08:30:41;;;;;;;11.57;3.08;;;;;;;;;;5079707;28;20229;-20
2022/05/13 08:33:09;;;;;;;6.93;2.10;;;;;;;;;;5077161;28;20480;-19
2022/05/13 08:35:36;;;;;;;10.05;3.08;;;;;;;;;;5074284;28;20229;-19
2022/05/13 08:38:06;;;;;;;9.45;2.65;;;;;;;;;;5078817;28;20229;-20
2022/05/13 08:40:37;;;;;;;8.55;2.38;;;;;;;;;;5072901;28;20228;-18
2022/05/13 08:43:04;;;;;;;8.23;2.60;;;;;;;;;;5064786;28;20239;-19
2022/05/13 08:45:32;;;;;;;7.93;2.65;;;;;;;;;;5071176;28;20228;-19
2022/05/13 08:47:59;;;;;;;5.97;2.15;;;;;;;;;;5079728;28;20239;-19
2022/05/13 08:50:27;;;;;;;11.60;2.70;;;;;;;;;;5073581;28;20229;-19
2022/05/13 08:53:07;;;;;;;8.35;3.03;;;;;;;;;;5078040;28;20237;-18
2022/05/13 08:55:38;;;;;;;8.55;2.72;;;;;;;;;;5068556;28;20979;-19
2022/05/13 08:58:06;;;;;;;12.15;3.15;;;;;;;;;;5076641;28;20361;-18
2022/05/13 09:00:34;;;;;;;12.95;3.47;;;;;;;;;;5074469;28;20233;-19
2022/05/13 09:03:02;;;;;;;15.65;3.70;;;;;;;;;;5077492;28;20312;-19
2022/05/13 09:05:30;;;;;;;9.80;3.40;;;;;;;;;;5083324;28;20229;-19
2022/05/13 09:07:57;;;;;;;8.80;2.92;;;;;;;;;;5075980;28;20608;-19
2022/05/13 09:10:25;;;;;;;12.80;2.75;;;;;;;;;;5078968;28;20235;-19
2022/05/13 09:12:55;;;;;;;14.38;3.75;;;;;;;;;;5080020;28;20730;-18
2022/05/13 09:15:24;;;;;;;13.65;3.17;;;;;;;;;;5080172;28;20719;-19
2022/05/13 09:17:55;;;;;;;12.30;3.10;;;;;;;;;;5077403;28;20232;-19
2022/05/13 09:20:23;;;;;;;9.50;2.85;;;;;;;;;;5080713;28;20240;-19
2022/05/13 09:22:52;;;;;;;11.73;3.08;;;;;;;;;;5083966;28;20746;-19
2022/05/13 09:25:21;;;;;;;12.50;4.15;;;;;;;;;;5083294;28;20709;-19
2022/05/13 09:27:50;;;;;;;14.75;3.90;;;;;;;;;;5085058;28;20236;-19
2022/05/13 09:30:20;;;;;;;14.85;3.58;;;;;;;;;;5084262;28;20387;-19
2022/05/13 09:32:47;;;;;;;10.30;3.88;;;;;;;;;;5079887;28;20237;-19
2022/05/13 09:35:16;;;;;;;10.77;3.40;;;;;;;;;;5080570;28;20239;-19
2022/05/13 09:37:44;;;;;;;10.48;3.03;;;;;;;;;;5077268;28;20226;-18
2022/05/13 09:40:12;;;;;;;12.70;3.47;;;;;;;;;;5080456;28;20248;-19
2022/05/13 09:42:40;;;;;;;10.98;3.17;;;;;;;;;;5078585;28;20234;-19
2022/05/13 09:45:12;;;;;;;8.70;2.95;;;;;;;;;;5082079;28;20774;-19
2022/05/13 09:47:42;;;;;;;8.25;2.90;;;;;;;;;;5085686;28;20272;-19
2022/05/13 09:50:27;;;;;;;11.05;3.22;;;;;;;;;;5082438;28;20324;-19
2022/05/13 09:52:55;;;;;;;8.68;2.83;;;;;;;;;;5085143;28;20364;-19
2022/05/13 09:55:26;;;;;;;6.00;2.50;;;;;;;;;;5075128;28;20242;-18
2022/05/13 09:57:54;;;;;;;18.05;2.97;;;;;;;;;;5076425;28;20726;-19
2022/05/13 10:00:24;;;;;;;9.23;2.92;;;;;;;;;;5081310;28;20705;-19
2022/05/13 10:03:05;;;;;;;12.05;2.97;;;;;;;;;;5084164;28;20236;-19
2022/05/13 10:05:34;;;;;;;11.77;2.25;;;;;;;;;;5078787;28;20998;-19
2022/05/13 10:08:01;;;;;;;9.77;2.63;;;;;;;;;;5069519;28;20233;-19
2022/05/13 10:16:01;;;;;;;4.03;1.85;;;;;;;;;;5077776;28;20334;-19
2022/05/13 10:18:30;;;;;;;7.70;2.38;;;;;;;;;;5085123;28;20706;-19
2022/05/13 10:20:59;;;;;;;8.38;2.78;;;;;;;;;;5081227;28;20237;-19
2022/05/13 10:23:26;;;;;;;5.72;1.27;;;;;;;;;;5081302;28;20229;-19
2022/05/13 10:25:55;;;;;;;5.40;1.45;;;;;;;;;;5083945;28;20225;-18
2022/05/13 10:28:23;;;;;;;5.35;1.50;;;;;;;;;;5082547;28;20731;-19
2022/05/13 10:30:51;;;;;;;5.45;1.40;;;;;;;;;;5083571;28;20983;-19
2022/05/13 10:33:20;;;;;;;7.15;1.75;;;;;;;;;;5081884;28;20287;-19
2022/05/13 10:35:50;;;;;;;6.75;1.42;;;;;;;;;;5081481;28;20241;-19
2022/05/13 10:38:18;;;;;;;4.60;1.40;;;;;;;;;;5085316;28;20228;-19
2022/05/13 10:40:46;;;;;;;3.28;1.10;;;;;;;;;;5078701;28;20240;-19
2022/05/13 10:43:14;;;;;;;4.40;1.50;;;;;;;;;;5083153;28;20308;-19
2022/05/13 10:45:42;;;;;;;8.70;1.45;;;;;;;;;;5077265;28;20711;-19
2022/05/13 10:48:13;;;;;;;4.53;1.10;;;;;;;;;;5083865;28;20236;-19
2022/05/13 10:50:42;;;;;;;7.88;1.50;;;;;;;;;;5081709;28;20233;-19
2022/05/13 10:53:11;;;;;;;8.25;1.50;;;;;;;;;;5080358;28;20703;-19
2022/05/13 10:55:42;;;;;;;3.03;1.20;;;;;;;;;;5079513;28;20241;-18
2022/05/13 10:58:13;;;;;;;4.70;1.10;;;;;;;;;;5084345;28;20244;-19
2022/05/13 11:00:43;;;;;;;4.38;1.38;;;;;;;;;;5083351;28;20325;-18
2022/05/13 11:03:28;;;;;;;5.38;1.13;;;;;;;;;;5083551;28;20236;-19
2022/05/13 11:06:02;;;;;;;4.13;1.13;;;;;;;;;;5083835;28;20274;-19
2022/05/13 11:08:32;;;;;;;4.90;1.48;;;;;;;;;;5079609;28;20717;-19
2022/05/13 11:11:07;;;;;;;5.20;1.40;;;;;;;;;;5080946;28;21033;-19
2022/05/13 11:13:38;;;;;;;4.57;1.13;;;;;;;;;;5076203;28;20573;-19
2022/05/13 11:16:07;;;;;;;3.95;1.25;;;;;;;;;;5081538;28;20347;-19
2022/05/13 11:18:38;;;;;;;2.75;1.00;;;;;;;;;;5076002;28;20232;-19
2022/05/13 11:21:07;;;;;;;5.80;1.40;;;;;;;;;;5083866;28;20225;-19
2022/05/13 11:25:54;;;;;;;3.38;1.20;;;;;;;;;;5080906;28;20963;-19
2022/05/13 11:26:36;;;;;;;4.35;1.30;;;;;;;;;;5077376;28;20240;-19
2022/05/13 11:29:05;;;;;;;6.13;1.55;;;;;;;;;;5083236;28;20232;-19
2022/05/13 11:31:41;;;;;;;4.30;1.10;;;;;;;;;;5076216;28;20230;-19
2022/05/13 11:34:11;;;;;;;4.47;1.10;;;;;;;;;;5077764;28;20225;-19
2022/05/13 11:36:41;;;;;;;4.97;1.48;;;;;;;;;;5083073;28;20275;-19
2022/05/13 11:39:26;;;;;;;4.07;1.33;;;;;;;;;;5079678;28;20614;-19
2022/05/13 11:42:01;;;;;;;6.18;1.55;;;;;;;;;;5077922;28;20213;-19
2022/05/13 11:44:38;;;;;;;4.85;1.10;;;;;;;;;;5074279;28;20836;-19
2022/05/13 11:47:06;;;;;;;7.40;1.50;;;;;;;;;;5079783;28;20226;-19
2022/05/13 11:49:34;;;;;;;5.20;1.30;;;;;;;;;;5083670;28;20586;-18
2022/05/13 11:52:04;;;;;;;4.20;1.33;;;;;;;;;;5075510;28;20236;-19
2022/05/13 11:54:31;;;;;;;3.22;1.10;;;;;;;;;;5075968;28;20222;-19
2022/05/13 11:57:24;;;;;;;5.25;1.30;;;;;;;;;;5080139;28;21127;-19
2022/05/13 11:59:53;;;;;;;3.63;1.05;;;;;;;;;;5061634;28;20232;-19
2022/05/13 12:02:32;;;;;;;5.43;1.50;;;;;;;;;;5080792;28;20232;-19
2022/05/13 12:05:10;;;;;;;5.28;1.08;;;;;;;;;;5083356;28;20244;-19
2022/05/13 12:07:38;;;;;;;3.40;1.42;;;;;;;;;;5077136;28;20234;-18
2022/05/13 12:10:06;;;;;;;2.33;0.95;;;;;;;;;;5082853;28;20247;-18
2022/05/13 12:12:37;;;;;;;3.42;1.10;;;;;;;;;;5075886;28;20234;-17
2022/05/13 12:15:21;;;;;;;3.40;1.13;;;;;;;;;;5076066;28;20222;-18
2022/05/13 12:17:51;;;;;;;4.07;1.10;;;;;;;;;;5077934;28;20629;-18
2022/05/13 12:20:21;;;;;;;2.80;1.50;;;;;;;;;;5080901;28;20239;-18
2022/05/13 12:22:52;;;;;;;4.50;0.95;;;;;;;;;;5079572;28;20245;-18
2022/05/13 12:25:38;;;;;;;5.15;1.10;;;;;;;;;;5077403;28;20734;-18
2022/05/13 12:28:05;;;;;;;3.88;1.13;;;;;;;;;;5074330;28;20988;-18
2022/05/13 12:30:34;;;;;;;6.30;1.10;;;;;;;;;;5069458;28;20237;-18
2022/05/13 12:33:17;;;;;;;2.58;1.08;;;;;;;;;;5066535;28;20695;-18
2022/05/13 12:38:31;;;;;;;3.22;0.95;;;;;;;;;;5063800;28;20234;-18
2022/05/13 12:41:09;;;;;;;5.35;1.10;;;;;;;;;;5075503;28;20225;-18
2022/05/13 12:43:47;;;;;;;5.72;0.93;;;;;;;;;;5077034;28;20228;-18
2022/05/13 12:46:15;;;;;;;6.68;1.38;;;;;;;;;;5081218;28;20244;-18
2022/05/13 12:49:10;;;;;;;2.58;1.10;;;;;;;;;;5079357;28;20235;-17
2022/05/13 12:51:43;;;;;;;4.10;1.23;;;;;;;;;;5045205;28;20652;-18
2022/05/13 12:54:10;;;;;;;5.68;1.25;;;;;;;;;;5083011;28;20277;-19
2022/05/13 12:56:38;;;;;;;4.32;1.42;;;;;;;;;;5082489;28;20239;-19
2022/05/13 12:59:07;;;;;;;5.40;1.10;;;;;;;;;;5079026;28;20237;-19
2022/05/13 13:01:35;;;;;;;3.40;1.00;;;;;;;;;;5078150;28;20233;-18
2022/05/13 13:04:03;;;;;;;5.10;1.38;;;;;;;;;;5078402;28;20255;-18
2022/05/13 13:06:43;;;;;;;2.10;0.80;;;;;;;;;;5074983;28;20324;-18
2022/05/13 13:09:11;;;;;;;9.55;1.10;;;;;;;;;;5076923;28;20225;-19
2022/05/13 13:11:49;;;;;;;4.78;1.20;;;;;;;;;;5079451;28;20222;-18
2022/05/13 13:14:40;;;;;;;3.85;1.20;;;;;;;;;;5076369;28;20225;-18
2022/05/13 13:17:08;;;;;;;3.83;1.15;;;;;;;;;;5080229;28;20245;-18
2022/05/13 13:19:36;;;;;;;6.65;1.10;;;;;;;;;;5066281;28;20235;-18
2022/05/13 13:22:05;;;;;;;4.53;1.10;;;;;;;;;;5068753;28;20241;-18
2022/05/13 13:24:34;;;;;;;3.00;1.00;;;;;;;;;;5074952;28;20221;-18
2022/05/13 13:27:01;;;;;;;2.50;1.00;;;;;;;;;;5074453;28;20229;-19
2022/05/13 13:29:29;;;;;;;7.03;1.20;;;;;;;;;;5080586;28;20235;-19
2022/05/13 13:31:58;;;;;;;4.20;1.25;;;;;;;;;;5078990;28;20233;-18
2022/05/13 13:34:27;;;;;;;2.90;1.15;;;;;;;;;;5081429;28;20240;-19
2022/05/13 13:36:54;;;;;;;3.72;1.25;;;;;;;;;;5079639;28;21048;-18
2022/05/13 13:39:43;;;;;;;3.17;1.10;;;;;;;;;;5076197;28;20237;-18
2022/05/13 13:42:14;;;;;;;6.93;1.00;;;;;;;;;;5080492;28;20236;-18
2022/05/13 13:44:43;;;;;;;6.85;1.40;;;;;;;;;;5080767;28;20353;-18
2022/05/13 13:47:11;;;;;;;3.33;1.05;;;;;;;;;;5078944;28;20336;-18
2022/05/13 13:49:39;;;;;;;4.55;1.15;;;;;;;;;;5082115;28;20236;-18
2022/05/13 13:52:13;;;;;;;4.47;1.00;;;;;;;;;;5080402;28;20790;-19
2022/05/13 13:54:43;;;;;;;3.50;1.30;;;;;;;;;;5076919;28;20735;-19
2022/05/13 13:57:18;;;;;;;5.18;1.35;;;;;;;;;;5079223;28;20237;-19
2022/05/13 13:59:46;;;;;;;6.43;1.42;;;;;;;;;;5080937;28;20225;-19
2022/05/13 14:02:14;;;;;;;4.55;1.10;;;;;;;;;;5077796;28;20235;-18
2022/05/13 14:04:49;;;;;;;8.93;1.48;;;;;;;;;;5078221;28;20230;-18
2022/05/13 14:07:19;;;;;;;2.45;0.70;;;;;;;;;;5080762;28;21128;-18
2022/05/13 14:09:48;;;;;;;2.38;0.80;;;;;;;;;;5083487;28;20229;-19
2022/05/13 14:12:16;;;;;;;3.88;1.10;;;;;;;;;;5081304;28;20227;-18
2022/05/13 14:15:04;;;;;;;2.80;0.90;;;;;;;;;;5078051;28;20237;-18
2022/05/13 14:17:31;;;;;;;1.63;1.00;;;;;;;;;;5077423;28;20250;-18
2022/05/13 14:20:02;;;;;;;2.42;1.15;;;;;;;;;;5084727;28;20235;-18
2022/05/13 14:22:29;;;;;;;3.17;1.17;;;;;;;;;;5084843;28;20267;-19
2022/05/13 14:25:05;;;;;;;5.13;1.20;;;;;;;;;;5076889;28;21053;-19
2022/05/13 14:27:32;;;;;;;3.20;1.02;;;;;;;;;;5077723;28;20234;-18
2022/05/13 14:30:00;;;;;;;2.50;0.80;;;;;;;;;;5084417;28;20229;-18
2022/05/13 14:32:31;;;;;;;5.30;1.10;;;;;;;;;;5081504;28;20232;-19
2022/05/13 14:34:59;;;;;;;4.80;0.95;;;;;;;;;;5080179;28;20240;-19
2022/05/13 14:37:30;;;;;;;3.25;1.02;;;;;;;;;;5081856;28;20241;-19
2022/05/13 14:39:58;;;;;;;5.63;1.20;;;;;;;;;;5081807;28;20229;-18
2022/05/13 14:42:30;;;;;;;4.50;1.10;;;;;;;;;;5084476;28;20269;-19
2022/05/13 14:44:58;;;;;;;3.03;1.30;;;;;;;;;;5081332;28;20237;-19
2022/05/13 14:47:35;;;;;;;4.00;1.30;;;;;;;;;;5080786;28;20253;-19
2022/05/13 14:50:03;;;;;;;5.20;1.10;;;;;;;;;;5072834;28;20232;-19
2022/05/13 14:52:31;;;;;;;2.53;0.90;;;;;;;;;;5076958;28;20692;-18
2022/05/13 14:54:59;;;;;;;6.70;0.93;;;;;;;;;;5084388;28;20732;-18
2022/05/13 14:57:29;;;;;;;3.90;1.05;;;;;;;;;;5080901;28;20241;-19
2022/05/13 14:59:57;;;;;;;7.15;1.42;;;;;;;;;;5083858;28;21022;-18
2022/05/13 15:02:29;;;;;;;2.97;1.15;;;;;;;;;;5077529;28;20256;-19
2022/05/13 15:04:57;;;;;;;4.18;1.40;;;;;;;;;;5081282;28;20237;-19
2022/05/13 15:07:38;;;;;;;5.57;1.48;;;;;;;;;;5082206;28;20239;-19
2022/05/13 15:10:06;;;;;;;3.78;1.20;;;;;;;;;;5081251;28;20710;-18
2022/05/13 15:12:35;;;;;;;3.33;1.00;;;;;;;;;;5084240;28;20231;-18
2022/05/13 15:15:03;;;;;;;2.10;1.00;;;;;;;;;;5080582;28;20237;-19
2022/05/13 15:17:34;;;;;;;2.95;0.90;;;;;;;;;;5080013;28;20241;-20
2022/05/13 15:20:02;;;;;;;3.55;1.05;;;;;;;;;;5083350;28;20224;-19
2022/05/13 15:22:30;;;;;;;4.35;1.15;;;;;;;;;;5079966;28;20273;-19
2022/05/13 15:24:58;;;;;;;5.88;1.17;;;;;;;;;;5083818;28;20251;-19